createdAt,value
2022-08-17T00:00:34.398Z,56.74
2022-08-17T00:03:10.010Z,56.08
2022-08-17T00:05:42.639Z,56.34
2022-08-17T00:08:10.573Z,56.60
2022-08-17T00:10:39.381Z,56.70
2022-08-17T00:13:11.120Z,56.60
2022-08-17T00:15:39.690Z,56.63
2022-08-17T00:19:01.628Z,56.44
2022-08-17T00:20:58.448Z,56.64
2022-08-17T00:23:27.492Z,56.53
2022-08-17T00:25:55.770Z,56.12
2022-08-17T00:28:23.655Z,56.13
2022-08-17T00:30:53.832Z,56.49
2022-08-17T00:33:25.226Z,56.38
2022-08-17T00:35:54.112Z,56.20
2022-08-17T00:38:24.145Z,56.51
2022-08-17T00:40:55.856Z,56.29
2022-08-17T00:43:35.068Z,56.59
2022-08-17T00:46:06.324Z,57.04
2022-08-17T00:48:34.237Z,57.10
2022-08-17T00:51:08.186Z,57.61
2022-08-17T00:53:41.824Z,57.59
2022-08-17T00:56:15.580Z,57.89
2022-08-17T00:58:43.827Z,57.66
2022-08-17T01:01:13.131Z,57.91
2022-08-17T01:03:51.449Z,57.68
2022-08-17T01:06:19.534Z,57.89
2022-08-17T01:08:49.922Z,57.89
2022-08-17T01:11:26.353Z,58.38
2022-08-17T01:13:54.626Z,58.17
2022-08-17T01:16:25.913Z,58.49
2022-08-17T01:18:56.527Z,58.52
2022-08-17T01:21:32.834Z,58.43
2022-08-17T01:24:02.744Z,58.57
2022-08-17T01:26:33.726Z,58.82
2022-08-17T01:29:02.621Z,58.71
2022-08-17T01:31:35.726Z,58.93
2022-08-17T01:34:07.825Z,58.68
2022-08-17T01:36:36.096Z,58.71
2022-08-17T01:39:07.666Z,59.40
2022-08-17T01:41:37.974Z,59.46
2022-08-17T01:44:08.245Z,59.21
2022-08-17T01:46:38.267Z,59.14
2022-08-17T01:49:08.411Z,59.27
2022-08-17T01:51:36.481Z,59.44
2022-08-17T01:54:08.054Z,59.31
2022-08-17T01:56:39.800Z,59.21
2022-08-17T01:59:09.197Z,59.97
2022-08-17T02:01:38.016Z,59.95
2022-08-17T02:04:08.312Z,60.24
2022-08-17T02:06:45.022Z,60.26
2022-08-17T02:09:25.892Z,60.27
2022-08-17T02:11:54.812Z,60.81
2022-08-17T02:14:24.729Z,60.71
2022-08-17T02:16:53.147Z,60.58
2022-08-17T02:19:21.792Z,60.71
2022-08-17T02:21:52.844Z,61.00
2022-08-17T02:25:00.454Z,61.29
2022-08-17T02:27:13.700Z,61.63
2022-08-17T02:29:41.667Z,61.41
2022-08-17T02:32:25.381Z,61.18
2022-08-17T02:34:56.905Z,61.13
2022-08-17T02:37:25.483Z,61.12
2022-08-17T02:39:56.811Z,60.88
2022-08-17T02:42:29.123Z,60.98
2022-08-17T02:44:56.946Z,61.28
2022-08-17T02:47:25.156Z,61.34
2022-08-17T02:49:55.417Z,61.55
2022-08-17T02:52:42.533Z,61.06
2022-08-17T02:55:15.952Z,61.72
2022-08-17T02:57:44.310Z,62.09
2022-08-17T03:00:15.094Z,62.40
2022-08-17T03:02:45.054Z,62.13
2022-08-17T03:05:14.742Z,62.10
2022-08-17T03:07:43.057Z,62.40
2022-08-17T03:10:13.117Z,62.52
2022-08-17T03:12:43.323Z,62.69
2022-08-17T03:15:13.765Z,62.73
2022-08-17T03:17:41.809Z,62.73
2022-08-17T03:20:10.248Z,62.98
2022-08-17T03:22:40.404Z,62.70
2022-08-17T03:25:10.607Z,62.91
2022-08-17T03:27:42.066Z,62.98
2022-08-17T03:30:14.099Z,62.63
2022-08-17T03:32:45.139Z,62.67
2022-08-17T03:35:15.835Z,62.76
2022-08-17T03:37:47.013Z,62.89
2022-08-17T03:40:57.810Z,62.81
2022-08-17T03:43:18.465Z,62.89
2022-08-17T03:46:03.730Z,62.97
2022-08-17T03:48:50.973Z,63.24
2022-08-17T03:51:38.906Z,63.35
2022-08-17T03:54:24.809Z,63.33
2022-08-17T03:57:01.473Z,63.50
2022-08-17T03:59:31.112Z,62.96
2022-08-17T04:02:03.728Z,63.34
2022-08-17T04:04:31.541Z,63.29
2022-08-17T04:06:59.545Z,62.85
2022-08-17T04:09:27.564Z,62.96
2022-08-17T04:11:55.350Z,63.12
2022-08-17T04:14:25.300Z,62.62
2022-08-17T04:16:54.474Z,62.34
2022-08-17T04:19:22.296Z,62.79
2022-08-17T04:21:50.150Z,62.86
2022-08-17T04:24:17.990Z,62.74
2022-08-17T04:26:52.547Z,62.83
2022-08-17T04:29:21.537Z,62.46
2022-08-17T04:31:49.757Z,62.20
2022-08-17T04:34:19.670Z,62.40
2022-08-17T04:36:50.120Z,62.52
2022-08-17T04:39:18.320Z,62.31
2022-08-17T04:42:03.709Z,62.46
2022-08-17T04:44:37.765Z,61.96
2022-08-17T04:47:07.153Z,61.68
2022-08-17T04:49:39.813Z,61.21
2022-08-17T04:52:08.146Z,60.89
2022-08-17T04:54:55.988Z,61.04
2022-08-17T04:57:23.788Z,60.79
2022-08-17T04:59:51.641Z,60.67
2022-08-17T05:02:19.461Z,60.58
2022-08-17T05:04:48.628Z,60.54
2022-08-17T05:07:21.100Z,60.74
2022-08-17T05:09:50.957Z,60.69
2022-08-17T05:12:18.816Z,60.23
2022-08-17T05:14:46.623Z,60.01
2022-08-17T05:17:14.596Z,60.03
2022-08-17T05:19:42.419Z,59.83
2022-08-17T05:22:11.601Z,60.31
2022-08-17T05:24:43.731Z,59.79
2022-08-17T05:27:22.753Z,59.31
2022-08-17T05:29:51.493Z,59.48
2022-08-17T05:32:38.001Z,59.14
2022-08-17T05:35:08.537Z,59.00
2022-08-17T05:37:39.131Z,58.74
2022-08-17T05:40:08.651Z,58.29
2022-08-17T05:42:36.572Z,58.37
2022-08-17T05:45:04.988Z,58.28
2022-08-17T05:47:32.832Z,58.01
2022-08-17T05:50:02.501Z,58.08
2022-08-17T05:52:47.975Z,58.19
2022-08-17T05:55:24.192Z,58.13
2022-08-17T05:58:08.437Z,58.27
2022-08-17T06:00:44.225Z,57.86
2022-08-17T06:03:28.090Z,57.68
2022-08-17T06:06:08.760Z,57.56
2022-08-17T06:08:51.668Z,57.27
2022-08-17T06:11:27.598Z,57.34
2022-08-17T06:14:10.860Z,57.31
2022-08-17T06:16:42.457Z,57.28
2022-08-17T06:19:17.054Z,57.59
2022-08-17T06:21:48.732Z,57.68
2022-08-17T06:24:29.536Z,57.70
2022-08-17T06:27:07.223Z,57.32
2022-08-17T06:29:48.930Z,57.43
2022-08-17T06:32:17.242Z,56.89
2022-08-17T06:34:47.060Z,55.71
2022-08-17T06:37:28.943Z,55.31
2022-08-17T06:40:13.182Z,54.52
2022-08-17T06:43:02.173Z,53.56
2022-08-17T06:45:38.905Z,52.94
2022-08-17T06:48:13.901Z,53.25
2022-08-17T06:50:48.073Z,53.64
2022-08-17T06:53:24.383Z,52.74
2022-08-17T06:55:59.772Z,53.06
2022-08-17T06:58:31.229Z,52.01
2022-08-17T07:01:05.179Z,52.27
2022-08-17T07:03:37.970Z,51.90
2022-08-17T07:06:13.597Z,51.31
2022-08-17T07:08:50.484Z,50.80
2022-08-17T07:11:27.146Z,49.67
2022-08-17T07:14:04.339Z,49.08
2022-08-17T07:16:37.009Z,49.30
2022-08-17T07:19:07.295Z,49.39
2022-08-17T07:21:47.705Z,48.54
2022-08-17T07:24:37.230Z,48.68
2022-08-17T07:27:15.923Z,47.56
2022-08-17T07:29:49.435Z,46.74
2022-08-17T07:32:21.157Z,46.67
2022-08-17T07:35:15.228Z,46.66
2022-08-17T07:37:45.677Z,46.90
2022-08-17T07:40:29.598Z,46.69
2022-08-17T07:43:23.031Z,47.03
2022-08-17T07:46:22.201Z,46.64
2022-08-17T07:48:52.721Z,46.07
2022-08-17T07:51:26.096Z,46.93
2022-08-17T07:54:09.147Z,47.38
2022-08-17T07:56:45.531Z,46.80
2022-08-17T07:59:17.994Z,46.01
2022-08-17T08:02:06.116Z,46.71
2022-08-17T08:07:29.463Z,47.86
2022-08-17T08:10:10.611Z,48.28
2022-08-17T08:12:41.165Z,48.55
2022-08-17T08:15:17.669Z,48.53
2022-08-17T08:17:55.482Z,48.86
2022-08-17T08:20:51.284Z,48.76
2022-08-17T08:23:39.492Z,49.63
2022-08-17T08:26:20.279Z,49.26
2022-08-17T08:29:00.432Z,49.50
2022-08-17T08:31:42.503Z,50.29
2022-08-17T08:34:58.843Z,50.26
2022-08-17T08:37:32.252Z,50.25
2022-08-17T08:40:08.655Z,50.94
2022-08-17T08:42:43.155Z,50.44
2022-08-17T08:45:16.865Z,51.15
2022-08-17T08:48:05.884Z,51.54
2022-08-17T08:50:42.894Z,52.10
2022-08-17T08:53:21.841Z,52.65
2022-08-17T08:55:55.875Z,52.54
2022-08-17T08:58:42.079Z,52.16
2022-08-17T09:01:18.032Z,52.77
2022-08-17T09:04:21.531Z,53.11
2022-08-17T09:07:02.248Z,53.19
2022-08-17T09:09:43.673Z,52.97
2022-08-17T09:12:22.554Z,53.37
2022-08-17T09:14:57.839Z,54.43
2022-08-17T09:17:34.965Z,54.62
2022-08-17T09:20:11.913Z,54.84
2022-08-17T09:22:59.384Z,55.23
2022-08-17T09:25:32.771Z,55.74
2022-08-17T09:28:04.822Z,55.77
2022-08-17T09:30:39.038Z,55.71
2022-08-17T09:33:09.211Z,55.47
2022-08-17T09:35:44.724Z,55.62
2022-08-17T09:38:22.504Z,56.38
2022-08-17T09:40:57.536Z,56.22
2022-08-17T09:43:35.098Z,56.83
2022-08-17T09:46:09.884Z,56.49
2022-08-17T09:48:42.865Z,56.31
2022-08-17T09:51:17.142Z,55.89
2022-08-17T09:53:45.353Z,55.37
2022-08-17T09:56:34.487Z,55.44
2022-08-17T09:59:28.507Z,52.99
2022-08-17T10:02:17.653Z,51.18
2022-08-17T10:04:56.363Z,50.72
2022-08-17T10:07:34.094Z,50.58
2022-08-17T10:10:13.559Z,51.50
2022-08-17T10:12:53.326Z,52.27
2022-08-17T10:15:37.560Z,51.65
2022-08-17T10:18:18.525Z,51.21
2022-08-17T10:21:15.768Z,50.86
2022-08-17T10:24:05.176Z,50.43
2022-08-17T10:26:55.784Z,48.75
2022-08-17T10:29:29.485Z,48.03
2022-08-17T10:32:10.685Z,46.50
2022-08-17T10:34:59.447Z,43.47
2022-08-17T10:37:43.803Z,41.79
2022-08-17T10:40:24.615Z,41.63
2022-08-17T10:43:00.268Z,40.21
2022-08-17T10:45:35.690Z,39.62
2022-08-17T10:48:28.479Z,39.10
2022-08-17T10:51:07.386Z,38.57
2022-08-17T10:54:01.633Z,39.55
2022-08-17T10:56:50.346Z,40.67
2022-08-17T10:59:51.421Z,40.73
2022-08-17T11:02:26.102Z,40.64
2022-08-17T11:05:20.464Z,42.41
2022-08-17T11:08:05.333Z,43.55
2022-08-17T11:11:07.698Z,43.71
2022-08-17T11:13:45.810Z,43.04
2022-08-17T11:16:34.122Z,44.17
2022-08-17T11:19:36.572Z,44.65
2022-08-17T11:22:23.232Z,43.54
2022-08-17T11:24:54.669Z,43.32
2022-08-17T11:27:28.129Z,44.88
2022-08-17T11:30:02.124Z,44.09
2022-08-17T11:32:37.975Z,43.30
2022-08-17T11:35:39.936Z,44.67
2022-08-17T11:38:18.869Z,44.29
2022-08-17T11:41:09.390Z,43.16
2022-08-17T11:44:15.293Z,42.28
2022-08-17T11:47:16.454Z,40.28
2022-08-17T11:50:18.827Z,39.90
2022-08-17T11:52:49.871Z,40.26
2022-08-17T11:55:51.077Z,38.92
2022-08-17T11:58:41.417Z,37.05
2022-08-17T12:01:13.447Z,37.56
2022-08-17T12:03:54.152Z,38.58
2022-08-17T12:06:44.913Z,37.91
2022-08-17T12:09:18.278Z,37.87
2022-08-17T12:12:01.687Z,36.17
2022-08-17T12:15:08.032Z,35.25
2022-08-17T12:17:41.389Z,34.50
2022-08-17T12:20:17.645Z,34.42
2022-08-17T12:22:54.722Z,34.99
2022-08-17T12:25:31.392Z,36.54
2022-08-17T12:28:05.286Z,37.29
2022-08-17T12:30:35.385Z,36.20
2022-08-17T12:33:03.286Z,34.86
2022-08-17T12:35:35.457Z,35.00
2022-08-17T12:38:06.411Z,35.52
2022-08-17T12:40:58.153Z,35.61
2022-08-17T12:43:30.432Z,34.75
2022-08-17T12:46:01.076Z,35.18
2022-08-17T12:48:58.932Z,33.78
2022-08-17T12:51:30.010Z,33.80
2022-08-17T12:53:58.005Z,37.26
2022-08-17T12:56:25.889Z,35.62
2022-08-17T12:58:55.561Z,35.13
2022-08-17T13:01:25.249Z,35.09
2022-08-17T13:03:57.135Z,36.71
2022-08-17T13:06:32.607Z,36.39
2022-08-17T13:09:11.309Z,35.38
2022-08-17T13:11:48.581Z,36.33
2022-08-17T13:14:18.367Z,36.24
2022-08-17T13:16:52.756Z,35.62
2022-08-17T13:19:39.746Z,36.70
2022-08-17T13:22:12.389Z,36.01
2022-08-17T13:24:52.886Z,35.53
2022-08-17T13:27:22.829Z,36.47
2022-08-17T13:29:53.914Z,37.29
2022-08-17T13:32:24.054Z,39.31
2022-08-17T13:35:13.796Z,37.30
2022-08-17T13:38:02.209Z,37.10
2022-08-17T13:40:36.562Z,37.31
2022-08-17T13:43:05.445Z,39.08
2022-08-17T13:45:53.314Z,39.30
2022-08-17T13:48:25.705Z,39.49
2022-08-17T13:51:29.720Z,39.00
2022-08-17T13:54:06.559Z,39.60
2022-08-17T13:56:51.970Z,38.96
2022-08-17T13:59:48.171Z,39.13
2022-08-17T14:02:20.368Z,40.64
2022-08-17T14:04:50.259Z,40.39
2022-08-17T14:07:28.999Z,40.99
2022-08-17T14:10:00.918Z,41.01
2022-08-17T14:12:32.011Z,40.65
2022-08-17T14:15:00.854Z,40.20
2022-08-17T14:17:36.308Z,41.59
2022-08-17T14:20:07.589Z,41.61
2022-08-17T14:22:38.550Z,41.87
2022-08-17T14:25:10.597Z,43.03
2022-08-17T14:27:43.580Z,44.00
2022-08-17T14:30:23.056Z,44.36
2022-08-17T14:32:51.903Z,44.72
2022-08-17T14:35:23.020Z,45.49
2022-08-17T14:37:51.427Z,45.18
2022-08-17T14:40:22.574Z,45.80
2022-08-17T14:42:50.833Z,46.81
2022-08-17T14:45:31.723Z,46.10
2022-08-17T14:48:03.896Z,46.80
2022-08-17T14:50:32.118Z,47.51
2022-08-17T14:53:04.313Z,46.39
2022-08-17T14:55:33.749Z,45.48
2022-08-17T14:58:01.921Z,45.89
2022-08-17T15:00:29.782Z,46.16
2022-08-17T15:03:00.013Z,46.71
2022-08-17T15:05:30.493Z,46.24
2022-08-17T15:07:58.648Z,45.96
2022-08-17T15:10:26.524Z,45.89
2022-08-17T15:12:56.111Z,46.12
2022-08-17T15:15:24.376Z,45.95
2022-08-17T15:17:52.300Z,46.23
2022-08-17T15:20:22.763Z,45.31
2022-08-17T15:22:54.908Z,45.35
2022-08-17T15:25:23.226Z,45.69
2022-08-17T15:27:51.816Z,45.68
2022-08-17T15:30:22.077Z,46.67
2022-08-17T15:32:55.061Z,46.70
2022-08-17T15:35:26.882Z,46.74
2022-08-17T15:37:57.107Z,46.23
2022-08-17T15:40:25.094Z,46.00
2022-08-17T15:42:53.005Z,46.30
2022-08-17T15:45:26.599Z,45.78
2022-08-17T15:47:54.500Z,46.58
2022-08-17T15:50:22.596Z,46.69
2022-08-17T15:52:56.399Z,45.54
2022-08-17T15:55:24.967Z,45.37
2022-08-17T15:57:53.269Z,45.80
2022-08-17T16:00:24.059Z,46.05
2022-08-17T16:03:47.108Z,46.89
2022-08-17T16:05:40.758Z,46.92
2022-08-17T16:08:08.850Z,46.81
2022-08-17T16:10:37.165Z,46.94
2022-08-17T16:13:05.815Z,47.27
2022-08-17T16:15:56.648Z,46.67
2022-08-17T16:18:28.246Z,46.25
2022-08-17T16:20:56.400Z,46.71
2022-08-17T16:23:24.949Z,46.49
2022-08-17T16:25:54.443Z,47.33
2022-08-17T16:28:35.849Z,47.39
2022-08-17T16:31:08.203Z,47.69
2022-08-17T16:33:39.501Z,45.73
2022-08-17T16:36:09.047Z,46.67
2022-08-17T16:38:38.529Z,47.00
2022-08-17T16:41:07.754Z,48.37
2022-08-17T16:43:36.207Z,48.13
2022-08-17T16:46:04.241Z,47.89
2022-08-17T16:48:33.533Z,48.34
2022-08-17T16:51:04.116Z,48.14
2022-08-17T16:53:32.828Z,47.64
2022-08-17T16:56:01.296Z,47.94
2022-08-17T16:58:30.258Z,48.39
2022-08-17T17:00:59.598Z,48.03
2022-08-17T17:03:31.372Z,47.76
2022-08-17T17:06:13.581Z,47.84
2022-08-17T17:08:48.393Z,47.86
2022-08-17T17:11:34.045Z,48.74
2022-08-17T17:14:04.941Z,49.26
2022-08-17T17:16:41.075Z,48.70
2022-08-17T17:19:34.529Z,48.76
2022-08-17T17:22:15.253Z,48.74
2022-08-17T17:24:52.618Z,48.94
2022-08-17T17:27:31.783Z,48.57
2022-08-17T17:30:08.556Z,48.32
2022-08-17T17:32:42.188Z,49.15
2022-08-17T17:35:16.357Z,49.24
2022-08-17T17:37:47.196Z,49.17
2022-08-17T17:40:20.363Z,49.85
2022-08-17T17:42:50.139Z,49.80
2022-08-17T17:45:23.416Z,50.19
2022-08-17T17:47:51.798Z,50.35
2022-08-17T17:50:25.804Z,50.75
2022-08-17T17:53:03.117Z,50.84
2022-08-17T17:55:40.588Z,51.08
2022-08-17T17:58:25.411Z,50.86
2022-08-17T18:01:08.151Z,50.85
2022-08-17T18:03:50.571Z,51.45
2022-08-17T18:06:31.115Z,51.58
2022-08-17T18:09:10.234Z,52.15
2022-08-17T18:11:58.985Z,53.05
2022-08-17T18:14:42.992Z,53.16
2022-08-17T18:17:11.098Z,53.31
2022-08-17T18:19:39.938Z,53.45
2022-08-17T18:22:13.096Z,53.70
2022-08-17T18:24:47.035Z,53.38
2022-08-17T18:27:32.188Z,54.23
2022-08-17T18:30:04.596Z,54.48
2022-08-17T18:32:39.921Z,54.67
2022-08-17T18:35:28.622Z,54.90
2022-08-17T18:37:58.834Z,55.20
2022-08-17T18:40:33.167Z,55.42
2022-08-17T18:43:11.952Z,55.21
2022-08-17T18:45:45.622Z,55.20
2022-08-17T18:48:27.453Z,55.74
2022-08-17T18:50:58.549Z,55.71
2022-08-17T18:53:34.295Z,56.00
2022-08-17T18:56:35.040Z,56.15
2022-08-17T18:59:21.885Z,56.18
2022-08-17T19:02:09.968Z,57.03
2022-08-17T19:04:43.775Z,57.37
2022-08-17T19:07:27.846Z,57.21
2022-08-17T19:10:01.862Z,56.88
2022-08-17T19:12:38.111Z,56.45
2022-08-17T19:15:09.416Z,56.69
2022-08-17T19:17:45.615Z,57.02
2022-08-17T19:20:19.697Z,56.61
2022-08-17T19:23:01.425Z,57.07
2022-08-17T19:25:32.888Z,57.10
2022-08-17T19:28:21.708Z,57.46
2022-08-17T19:30:55.660Z,58.01
2022-08-17T19:33:24.061Z,57.75
2022-08-17T19:36:02.489Z,57.65
2022-08-17T19:38:43.168Z,57.76
2022-08-17T19:41:20.781Z,57.84
2022-08-17T19:44:13.076Z,58.62
2022-08-17T19:46:48.528Z,58.94
2022-08-17T19:49:32.908Z,58.75
2022-08-17T19:52:07.609Z,59.19
2022-08-17T19:54:42.084Z,59.38
2022-08-17T19:57:19.216Z,59.49
2022-08-17T19:59:54.609Z,60.39
2022-08-17T20:02:34.616Z,60.22
2022-08-17T20:05:06.413Z,60.42
2022-08-17T20:07:44.604Z,60.49
2022-08-17T20:10:19.107Z,61.17
2022-08-17T20:12:50.722Z,61.19
2022-08-17T20:15:26.188Z,61.02
2022-08-17T20:17:54.793Z,61.47
2022-08-17T20:20:31.865Z,62.04
2022-08-17T20:23:06.795Z,62.28
2022-08-17T20:25:39.264Z,62.27
2022-08-17T20:28:19.047Z,62.66
2022-08-17T20:30:52.319Z,62.76
2022-08-17T20:33:26.401Z,63.02
2022-08-17T20:36:04.438Z,63.21
2022-08-17T20:38:42.499Z,63.28
2022-08-17T20:41:16.546Z,63.42
2022-08-17T20:43:51.340Z,63.21
2022-08-17T20:46:31.306Z,63.32
2022-08-17T20:49:16.999Z,62.78
2022-08-17T20:52:01.317Z,62.93
2022-08-17T20:54:44.711Z,63.39
2022-08-17T20:57:48.488Z,63.92
2022-08-17T21:00:45.858Z,64.73
2022-08-17T21:03:50.200Z,65.10
2022-08-17T21:06:25.968Z,65.65
2022-08-17T21:08:58.819Z,65.13
2022-08-17T21:12:04.083Z,65.68
2022-08-17T21:14:41.865Z,66.09
2022-08-17T21:17:29.462Z,66.52
2022-08-17T21:20:11.358Z,66.94
2022-08-17T21:22:53.720Z,66.87
2022-08-17T21:25:37.094Z,66.82
2022-08-17T21:28:13.273Z,66.58
2022-08-17T21:30:53.632Z,66.62
2022-08-17T21:33:26.772Z,66.73
2022-08-17T21:36:11.130Z,67.12
2022-08-17T21:38:44.974Z,66.82
2022-08-17T21:41:22.050Z,67.48
2022-08-17T21:43:52.555Z,67.75
2022-08-17T21:46:28.722Z,67.88
2022-08-17T21:49:07.255Z,67.96
2022-08-17T21:51:46.495Z,68.19
2022-08-17T21:54:30.834Z,68.74
2022-08-17T21:57:00.613Z,68.85
2022-08-17T21:59:31.721Z,68.42
2022-08-17T22:02:01.703Z,68.97
2022-08-17T22:04:32.617Z,69.19
2022-08-17T22:07:02.450Z,69.78
2022-08-17T22:09:35.642Z,69.79
2022-08-17T22:12:09.012Z,70.00
2022-08-17T22:14:52.798Z,70.80
2022-08-17T22:17:25.386Z,70.73
2022-08-17T22:19:56.786Z,71.50
2022-08-17T22:22:29.715Z,71.51
2022-08-17T22:25:00.685Z,71.05
2022-08-17T22:27:50.357Z,71.30
2022-08-17T22:30:27.659Z,70.88
2022-08-17T22:32:56.180Z,71.73
2022-08-17T22:35:43.105Z,71.08
2022-08-17T22:38:32.886Z,71.37
2022-08-17T22:41:31.985Z,71.19
2022-08-17T22:44:07.387Z,71.41
2022-08-17T22:46:38.477Z,71.43
2022-08-17T22:49:06.887Z,72.27
2022-08-17T22:51:34.896Z,72.51
2022-08-17T22:54:31.452Z,72.32
2022-08-17T22:57:21.616Z,72.84
2022-08-17T22:59:51.589Z,72.61
2022-08-17T23:02:26.432Z,72.71
2022-08-17T23:04:59.044Z,73.12
2022-08-17T23:07:26.828Z,73.73
2022-08-17T23:09:55.342Z,74.08
2022-08-17T23:12:27.564Z,74.09
2022-08-17T23:15:01.572Z,74.71
2022-08-17T23:17:37.072Z,74.48
2022-08-17T23:20:08.429Z,74.69
2022-08-17T23:22:38.301Z,74.81
2022-08-17T23:25:26.357Z,75.03
2022-08-17T23:27:55.741Z,75.13
2022-08-17T23:30:25.282Z,74.89
2022-08-17T23:32:54.207Z,75.17
2022-08-17T23:35:40.388Z,74.66
2022-08-17T23:38:09.802Z,74.95
2022-08-17T23:40:39.395Z,74.82
2022-08-17T23:43:24.021Z,75.16
2022-08-17T23:45:53.937Z,75.81
2022-08-17T23:48:36.010Z,76.18
2022-08-17T23:51:09.452Z,75.96
2022-08-17T23:53:41.774Z,76.18
2022-08-17T23:56:11.349Z,75.89
2022-08-17T23:58:42.983Z,76.74
